岩国 の空港の天気 - METARとTAF

岩国飛行場 ( RJOI / IWK ) - 山口県岩国市
飛行場実況気象(Metar)
観測時間06/18 07:55 JST (06/17 22:55 UTC)
風向・風速静穏 0m/s
視程10km以上
天気現象
少しの雲 雲底高度 760m
全天の4割程度の雲 雲底高度 3660m
全天を覆う雲 雲底高度 8230m
気温20.6℃
湿度75%
気圧1012.9hPa
METARRJOI 172255Z 00000KT 9999 FEW025 SCT120 OVC270 21/16 A2991 RMK SLP129 T02060161
過去の天気等 Google飛行場航空写真 Wunderground天気予報

過去48時間のMETAR

飛行場予報(TAF)
発表時間: -
18日8時 JST ~ 18日9時 JST に徐々に
風向・風速南南東 4m/s
視程10km以上
少しの雲 雲底高度 910m
全天の8割程度の雲 雲底高度 5490m
全天を覆う雲 雲底高度 7920m
18日17時 JST から
風向・風速南 5m/s
視程10km以上
全天の4割程度の雲 雲底高度 1370m
全天の4割程度の雲 雲底高度 5490m
全天の8割程度の雲 雲底高度 7920m
18日20時 JST ~ 18日21時 JST に徐々に
風向・風速北北西 3m/s
視程10km以上
全天の4割程度の雲 雲底高度 1220m
全天の8割程度の雲 雲底高度 1830m
全天の8割程度の雲 雲底高度 7920m
TAF RJOI 1721/1821 33004KT 9999 SCT120 BKN270 QNH2988INS
BECMG 1723/1800 16007KT 9999 FEW030 BKN180 OVC260 QNH2987INS
FM180800 19010KT 9999 SCT045 SCT180 BKN260 QNH2983INS
BECMG 1811/1812 33005KT 9999 SCT040 BKN060 BKN260 QNH2980INS T25/1806Z T17/1820Z
日本の空港のMETAR・TAFへのリンク

RJTT 東京国際空港
RJAA 新東京国際空港
RJBB 関西国際空港
RJOO 大阪空港
RJGG 中部国際空港
RJCC 新千歳空港
RJFF 福岡空港
ROAH 那覇空港


RJEC 旭川空港
RJCH 函館空港
RJCK 釧路空港
RJCM 女満別空港
RJCB 帯広空港
RJSA 青森空港
RJSS 仙台空港
RJSK 秋田空港
RJSF 福島空港
RJAH 茨城空港
RJSN 新潟空港
RJNT 富山空港
RJNK 小松飛行場
RJNS 静岡空港
RJOH 美保飛行場
RJOC 出雲空港
RJOB 岡山空港
RJOA 広島空港
RJOI 岩国飛行場
RJOT 高松空港
RJOM 松山空港
RJOK 高知空港
RJFR 北九州空港
RJFT 熊本空港
RJFU 長崎空港
RJFS 佐賀空港
RJFO 大分空港
RJFM 宮崎空港
RJFK 鹿児島空港
ROIG 石垣島空港
RJTY 横田飛行場
ROTM 普天間飛行場
RODN 嘉手納飛行場